KVIH/VIH METAR and TAF weather

Enter ICAO airport designator
Station Type Date Time Source
KVIH METAR 2020/07/06 21:53 UTC NOAA

KVIH 062153Z AUTO 00000KT 10SM CLR 32/19 A2999 RMK AO2 SLP143 T03220189


Station Type Date Time Source
KVIH Decoded METAR 2020/07/06 21:53 UTC NOAA

ROLLA/VICHY ROLLA NATIONAL, MO, United States (KVIH) 38-08N 91-46W 333M
Jul 06, 2020 - 05:53 PM EDT / 2020.07.06 2153 UTC
Wind: Calm:0
Visibility: 10 mile(s):0
Sky conditions: clear
Temperature: 90.0 F (32.2 C)
Dew Point: 66.0 F (18.9 C)
Relative Humidity: 45%
Pressure (altimeter): 29.99 in. Hg (1015 hPa)
ob: KVIH 062153Z AUTO 00000KT 10SM CLR 32/19 A2999 RMK AO2 SLP143 T03220189
cycle: 22

Station Type Date Time Source
KVIH TAF UTC NOAA

Error!

Example: see airport list